sensor_id;sensor_type;location;lat;lon;timestamp;temperature;humidity
35463;DHT22;21578;47.892;9.970;2022-07-29T00:04:19;18.20;96.60
35463;DHT22;21578;47.892;9.970;2022-07-29T00:09:06;18.10;96.60
35463;DHT22;21578;47.892;9.970;2022-07-29T00:13:55;18.10;96.60
35463;DHT22;21578;47.892;9.970;2022-07-29T00:18:42;18.20;96.00
35463;DHT22;21578;47.892;9.970;2022-07-29T00:23:29;18.20;94.90
35463;DHT22;21578;47.892;9.970;2022-07-29T00:28:16;18.20;95.10
35463;DHT22;21578;47.892;9.970;2022-07-29T00:33:04;18.10;95.80
35463;DHT22;21578;47.892;9.970;2022-07-29T00:37:51;18.20;95.60
35463;DHT22;21578;47.892;9.970;2022-07-29T00:42:42;18.10;96.60
35463;DHT22;21578;47.892;9.970;2022-07-29T00:47:29;18.10;96.10
35463;DHT22;21578;47.892;9.970;2022-07-29T00:52:18;18.10;96.30
35463;DHT22;21578;47.892;9.970;2022-07-29T00:57:05;18.10;96.60
35463;DHT22;21578;47.892;9.970;2022-07-29T01:01:53;18.10;96.60
35463;DHT22;21578;47.892;9.970;2022-07-29T01:06:40;18.00;96.60
35463;DHT22;21578;47.892;9.970;2022-07-29T01:11:29;17.90;96.60
35463;DHT22;21578;47.892;9.970;2022-07-29T01:16:22;17.90;96.60
35463;DHT22;21578;47.892;9.970;2022-07-29T01:21:33;17.80;96.60
35463;DHT22;21578;47.892;9.970;2022-07-29T01:26:42;17.80;96.60
35463;DHT22;21578;47.892;9.970;2022-07-29T01:31:38;17.80;96.60
35463;DHT22;21578;47.892;9.970;2022-07-29T01:36:31;17.60;96.60
35463;DHT22;21578;47.892;9.970;2022-07-29T01:41:19;17.60;96.60
35463;DHT22;21578;47.892;9.970;2022-07-29T01:46:11;17.40;96.60
35463;DHT22;21578;47.892;9.970;2022-07-29T01:51:04;17.40;96.60
35463;DHT22;21578;47.892;9.970;2022-07-29T01:55:53;17.40;96.60
35463;DHT22;21578;47.892;9.970;2022-07-29T02:00:42;17.40;96.60
35463;DHT22;21578;47.892;9.970;2022-07-29T02:05:31;17.30;96.60
35463;DHT22;21578;47.892;9.970;2022-07-29T02:10:23;17.30;96.60
35463;DHT22;21578;47.892;9.970;2022-07-29T02:15:11;17.20;96.60
35463;DHT22;21578;47.892;9.970;2022-07-29T02:20:01;17.20;96.60
35463;DHT22;21578;47.892;9.970;2022-07-29T02:24:50;17.00;96.60
35463;DHT22;21578;47.892;9.970;2022-07-29T02:29:40;17.00;96.60
35463;DHT22;21578;47.892;9.970;2022-07-29T02:34:27;16.90;96.60
35463;DHT22;21578;47.892;9.970;2022-07-29T02:39:15;16.80;96.60
35463;DHT22;21578;47.892;9.970;2022-07-29T02:44:06;16.80;96.60
35463;DHT22;21578;47.892;9.970;2022-07-29T02:48:59;16.70;96.60
35463;DHT22;21578;47.892;9.970;2022-07-29T02:53:51;16.60;96.60
35463;DHT22;21578;47.892;9.970;2022-07-29T02:58:42;16.60;96.60
35463;DHT22;21578;47.892;9.970;2022-07-29T03:03:35;16.60;96.60
35463;DHT22;21578;47.892;9.970;2022-07-29T03:08:24;16.60;96.60
35463;DHT22;21578;47.892;9.970;2022-07-29T03:13:13;16.60;96.60
35463;DHT22;21578;47.892;9.970;2022-07-29T03:18:01;16.60;96.60
35463;DHT22;21578;47.892;9.970;2022-07-29T03:22:48;16.70;96.60
35463;DHT22;21578;47.892;9.970;2022-07-29T03:27:37;16.70;96.60
35463;DHT22;21578;47.892;9.970;2022-07-29T03:32:24;16.80;96.60
35463;DHT22;21578;47.892;9.970;2022-07-29T03:37:11;16.70;96.60
35463;DHT22;21578;47.892;9.970;2022-07-29T03:41:59;16.70;96.60
35463;DHT22;21578;47.892;9.970;2022-07-29T03:46:50;16.80;96.60
35463;DHT22;21578;47.892;9.970;2022-07-29T03:51:37;16.80;96.60
35463;DHT22;21578;47.892;9.970;2022-07-29T03:56:24;16.70;96.60
35463;DHT22;21578;47.892;9.970;2022-07-29T04:01:13;16.60;96.60
35463;DHT22;21578;47.892;9.970;2022-07-29T04:06:03;16.60;96.60
35463;DHT22;21578;47.892;9.970;2022-07-29T04:10:51;16.60;96.60
35463;DHT22;21578;47.892;9.970;2022-07-29T04:15:38;16.70;96.60
35463;DHT22;21578;47.892;9.970;2022-07-29T04:20:25;16.60;96.60
35463;DHT22;21578;47.892;9.970;2022-07-29T04:25:14;16.70;96.60
35463;DHT22;21578;47.892;9.970;2022-07-29T04:30:01;16.70;96.60
35463;DHT22;21578;47.892;9.970;2022-07-29T04:34:48;16.80;96.60
35463;DHT22;21578;47.892;9.970;2022-07-29T04:39:35;16.90;96.60
35463;DHT22;21578;47.892;9.970;2022-07-29T04:44:23;17.00;96.60
35463;DHT22;21578;47.892;9.970;2022-07-29T04:49:10;17.10;96.60
35463;DHT22;21578;47.892;9.970;2022-07-29T04:53:57;17.20;96.60
35463;DHT22;21578;47.892;9.970;2022-07-29T04:58:45;17.30;96.60
35463;DHT22;21578;47.892;9.970;2022-07-29T05:03:33;17.30;96.60
35463;DHT22;21578;47.892;9.970;2022-07-29T05:08:20;17.40;96.60
35463;DHT22;21578;47.892;9.970;2022-07-29T05:13:08;17.40;96.60
35463;DHT22;21578;47.892;9.970;2022-07-29T05:17:55;17.60;95.90
35463;DHT22;21578;47.892;9.970;2022-07-29T05:22:43;17.70;95.70
35463;DHT22;21578;47.892;9.970;2022-07-29T05:27:30;17.80;95.70
35463;DHT22;21578;47.892;9.970;2022-07-29T05:32:17;17.90;95.60
35463;DHT22;21578;47.892;9.970;2022-07-29T05:37:04;18.00;95.00
35463;DHT22;21578;47.892;9.970;2022-07-29T05:41:53;18.10;94.80
35463;DHT22;21578;47.892;9.970;2022-07-29T05:46:40;18.10;94.90
35463;DHT22;21578;47.892;9.970;2022-07-29T05:51:27;18.10;94.80
35463;DHT22;21578;47.892;9.970;2022-07-29T05:56:14;18.10;95.30
35463;DHT22;21578;47.892;9.970;2022-07-29T06:01:02;18.00;95.30
35463;DHT22;21578;47.892;9.970;2022-07-29T06:05:49;18.00;95.30
35463;DHT22;21578;47.892;9.970;2022-07-29T06:10:37;18.10;94.90
35463;DHT22;21578;47.892;9.970;2022-07-29T06:15:24;18.20;94.60
35463;DHT22;21578;47.892;9.970;2022-07-29T06:20:13;18.30;94.70
35463;DHT22;21578;47.892;9.970;2022-07-29T06:25:01;18.30;95.30
35463;DHT22;21578;47.892;9.970;2022-07-29T06:29:48;18.30;95.10
35463;DHT22;21578;47.892;9.970;2022-07-29T06:34:35;18.30;94.60
35463;DHT22;21578;47.892;9.970;2022-07-29T06:39:24;18.30;95.00
35463;DHT22;21578;47.892;9.970;2022-07-29T06:44:11;18.30;94.70
35463;DHT22;21578;47.892;9.970;2022-07-29T06:48:58;18.30;94.60
35463;DHT22;21578;47.892;9.970;2022-07-29T06:53:46;18.30;95.50
35463;DHT22;21578;47.892;9.970;2022-07-29T06:58:35;18.30;95.00
35463;DHT22;21578;47.892;9.970;2022-07-29T07:03:23;18.40;94.90
35463;DHT22;21578;47.892;9.970;2022-07-29T07:08:10;18.50;94.80
35463;DHT22;21578;47.892;9.970;2022-07-29T07:12:57;18.60;93.70
35463;DHT22;21578;47.892;9.970;2022-07-29T07:17:45;18.70;94.00
35463;DHT22;21578;47.892;9.970;2022-07-29T07:22:32;19.00;92.70
35463;DHT22;21578;47.892;9.970;2022-07-29T07:27:20;19.10;92.00
35463;DHT22;21578;47.892;9.970;2022-07-29T07:32:07;19.20;91.60
35463;DHT22;21578;47.892;9.970;2022-07-29T07:36:56;19.30;90.80
35463;DHT22;21578;47.892;9.970;2022-07-29T07:41:43;19.40;90.80
35463;DHT22;21578;47.892;9.970;2022-07-29T07:46:30;19.60;91.00
35463;DHT22;21578;47.892;9.970;2022-07-29T07:51:17;19.80;90.40
35463;DHT22;21578;47.892;9.970;2022-07-29T07:56:06;19.90;89.90
35463;DHT22;21578;47.892;9.970;2022-07-29T08:00:53;20.10;87.10
35463;DHT22;21578;47.892;9.970;2022-07-29T08:05:40;20.30;87.30
35463;DHT22;21578;47.892;9.970;2022-07-29T08:10:27;20.50;87.20
35463;DHT22;21578;47.892;9.970;2022-07-29T08:15:33;20.80;85.90
35463;DHT22;21578;47.892;9.970;2022-07-29T08:20:21;21.00;85.50
35463;DHT22;21578;47.892;9.970;2022-07-29T08:25:08;21.10;84.40
35463;DHT22;21578;47.892;9.970;2022-07-29T08:29:55;21.40;83.60
35463;DHT22;21578;47.892;9.970;2022-07-29T08:34:44;21.60;82.50
35463;DHT22;21578;47.892;9.970;2022-07-29T08:39:31;21.80;83.10
35463;DHT22;21578;47.892;9.970;2022-07-29T08:44:19;21.80;83.40
35463;DHT22;21578;47.892;9.970;2022-07-29T08:49:07;21.60;82.00
35463;DHT22;21578;47.892;9.970;2022-07-29T08:53:56;21.50;85.20
35463;DHT22;21578;47.892;9.970;2022-07-29T08:58:43;21.40;89.70
35463;DHT22;21578;47.892;9.970;2022-07-29T09:03:32;21.40;88.90
35463;DHT22;21578;47.892;9.970;2022-07-29T09:08:20;21.60;86.80
35463;DHT22;21578;47.892;9.970;2022-07-29T09:13:09;21.80;86.00
35463;DHT22;21578;47.892;9.970;2022-07-29T09:17:56;21.90;83.40
35463;DHT22;21578;47.892;9.970;2022-07-29T09:22:44;21.90;84.20
35463;DHT22;21578;47.892;9.970;2022-07-29T09:27:34;22.00;83.20
35463;DHT22;21578;47.892;9.970;2022-07-29T09:32:23;22.00;81.80
35463;DHT22;21578;47.892;9.970;2022-07-29T09:37:10;22.00;80.70
35463;DHT22;21578;47.892;9.970;2022-07-29T09:41:59;22.00;81.30
35463;DHT22;21578;47.892;9.970;2022-07-29T09:46:54;22.10;80.80
35463;DHT22;21578;47.892;9.970;2022-07-29T09:51:42;22.20;80.40
35463;DHT22;21578;47.892;9.970;2022-07-29T09:56:40;22.40;80.00
35463;DHT22;21578;47.892;9.970;2022-07-29T10:01:28;22.40;80.70
35463;DHT22;21578;47.892;9.970;2022-07-29T10:06:15;22.30;81.90
35463;DHT22;21578;47.892;9.970;2022-07-29T10:11:12;22.30;82.60
35463;DHT22;21578;47.892;9.970;2022-07-29T10:15:59;22.30;82.80
35463;DHT22;21578;47.892;9.970;2022-07-29T10:20:47;22.30;82.80
35463;DHT22;21578;47.892;9.970;2022-07-29T10:25:34;22.40;83.00
35463;DHT22;21578;47.892;9.970;2022-07-29T10:30:24;22.50;82.70
35463;DHT22;21578;47.892;9.970;2022-07-29T10:35:31;22.50;82.00
35463;DHT22;21578;47.892;9.970;2022-07-29T10:40:26;22.50;83.20
35463;DHT22;21578;47.892;9.970;2022-07-29T10:45:33;22.50;83.00
35463;DHT22;21578;47.892;9.970;2022-07-29T10:50:20;22.70;81.20
35463;DHT22;21578;47.892;9.970;2022-07-29T10:55:07;22.60;81.00
35463;DHT22;21578;47.892;9.970;2022-07-29T11:05:22;22.30;81.80
35463;DHT22;21578;47.892;9.970;2022-07-29T11:10:23;22.20;83.90
35463;DHT22;21578;47.892;9.970;2022-07-29T11:15:11;22.10;88.10
35463;DHT22;21578;47.892;9.970;2022-07-29T11:20:38;22.10;88.30
35463;DHT22;21578;47.892;9.970;2022-07-29T11:25:25;21.80;85.50
35463;DHT22;21578;47.892;9.970;2022-07-29T11:30:13;21.60;87.20
35463;DHT22;21578;47.892;9.970;2022-07-29T11:35:17;21.60;87.50
35463;DHT22;21578;47.892;9.970;2022-07-29T11:40:25;21.60;86.80
35463;DHT22;21578;47.892;9.970;2022-07-29T11:45:14;21.70;85.10
35463;DHT22;21578;47.892;9.970;2022-07-29T11:50:04;21.80;85.50
35463;DHT22;21578;47.892;9.970;2022-07-29T11:54:52;21.90;84.60
35463;DHT22;21578;47.892;9.970;2022-07-29T11:59:46;22.10;84.50
35463;DHT22;21578;47.892;9.970;2022-07-29T12:04:36;22.10;84.80
35463;DHT22;21578;47.892;9.970;2022-07-29T12:09:34;22.00;83.20
35463;DHT22;21578;47.892;9.970;2022-07-29T12:14:26;21.90;82.80
35463;DHT22;21578;47.892;9.970;2022-07-29T12:19:15;22.00;83.40
35463;DHT22;21578;47.892;9.970;2022-07-29T12:24:03;22.10;81.50
35463;DHT22;21578;47.892;9.970;2022-07-29T12:28:50;22.20;81.40
35463;DHT22;21578;47.892;9.970;2022-07-29T12:33:37;22.40;82.60
35463;DHT22;21578;47.892;9.970;2022-07-29T12:38:26;22.70;82.60
35463;DHT22;21578;47.892;9.970;2022-07-29T12:43:15;23.40;82.50
35463;DHT22;21578;47.892;9.970;2022-07-29T12:48:03;23.70;80.70
35463;DHT22;21578;47.892;9.970;2022-07-29T12:52:50;23.60;79.90
35463;DHT22;21578;47.892;9.970;2022-07-29T12:57:46;23.90;78.80
35463;DHT22;21578;47.892;9.970;2022-07-29T13:02:33;23.70;77.40
35463;DHT22;21578;47.892;9.970;2022-07-29T13:07:26;23.80;79.90
35463;DHT22;21578;47.892;9.970;2022-07-29T13:12:14;23.70;76.90
35463;DHT22;21578;47.892;9.970;2022-07-29T13:17:05;23.50;77.90
35463;DHT22;21578;47.892;9.970;2022-07-29T13:21:53;23.60;79.50
35463;DHT22;21578;47.892;9.970;2022-07-29T13:26:40;23.90;79.90
35463;DHT22;21578;47.892;9.970;2022-07-29T13:31:27;24.10;79.10
35463;DHT22;21578;47.892;9.970;2022-07-29T13:36:16;24.30;78.70
35463;DHT22;21578;47.892;9.970;2022-07-29T13:41:03;24.40;78.50
35463;DHT22;21578;47.892;9.970;2022-07-29T13:45:50;24.50;79.00
35463;DHT22;21578;47.892;9.970;2022-07-29T13:50:37;24.60;78.10
35463;DHT22;21578;47.892;9.970;2022-07-29T13:55:26;24.70;76.60
35463;DHT22;21578;47.892;9.970;2022-07-29T14:00:13;24.60;76.70
35463;DHT22;21578;47.892;9.970;2022-07-29T14:05:00;24.50;76.80
35463;DHT22;21578;47.892;9.970;2022-07-29T14:09:47;24.40;77.70
35463;DHT22;21578;47.892;9.970;2022-07-29T14:14:36;24.40;77.80
35463;DHT22;21578;47.892;9.970;2022-07-29T14:19:23;24.40;77.90
35463;DHT22;21578;47.892;9.970;2022-07-29T14:24:10;24.20;78.20
35463;DHT22;21578;47.892;9.970;2022-07-29T14:28:57;24.20;77.90
35463;DHT22;21578;47.892;9.970;2022-07-29T14:33:45;24.30;76.80
35463;DHT22;21578;47.892;9.970;2022-07-29T14:38:32;24.50;76.10
35463;DHT22;21578;47.892;9.970;2022-07-29T14:43:19;24.70;75.20
35463;DHT22;21578;47.892;9.970;2022-07-29T14:48:06;24.80;74.80
35463;DHT22;21578;47.892;9.970;2022-07-29T14:52:55;24.80;74.90
35463;DHT22;21578;47.892;9.970;2022-07-29T14:57:42;24.60;75.60
35463;DHT22;21578;47.892;9.970;2022-07-29T15:02:29;24.40;75.90
35463;DHT22;21578;47.892;9.970;2022-07-29T15:07:16;24.10;76.90
35463;DHT22;21578;47.892;9.970;2022-07-29T15:12:05;23.80;77.80
35463;DHT22;21578;47.892;9.970;2022-07-29T15:16:53;23.60;77.80
35463;DHT22;21578;47.892;9.970;2022-07-29T15:21:41;23.60;78.70
35463;DHT22;21578;47.892;9.970;2022-07-29T15:26:28;23.40;79.70
35463;DHT22;21578;47.892;9.970;2022-07-29T15:31:16;23.20;79.80
35463;DHT22;21578;47.892;9.970;2022-07-29T15:36:04;23.10;80.70
35463;DHT22;21578;47.892;9.970;2022-07-29T15:40:51;22.70;81.20
35463;DHT22;21578;47.892;9.970;2022-07-29T15:45:39;21.20;87.30
35463;DHT22;21578;47.892;9.970;2022-07-29T15:50:28;20.00;95.50
35463;DHT22;21578;47.892;9.970;2022-07-29T15:55:15;19.50;96.60
35463;DHT22;21578;47.892;9.970;2022-07-29T16:00:04;19.30;96.60
35463;DHT22;21578;47.892;9.970;2022-07-29T16:04:51;19.00;96.60
35463;DHT22;21578;47.892;9.970;2022-07-29T16:09:40;18.90;96.60
35463;DHT22;21578;47.892;9.970;2022-07-29T16:14:27;19.00;96.60
35463;DHT22;21578;47.892;9.970;2022-07-29T16:19:14;18.90;96.60
35463;DHT22;21578;47.892;9.970;2022-07-29T16:24:02;18.90;96.60
35463;DHT22;21578;47.892;9.970;2022-07-29T16:28:50;18.80;96.60
35463;DHT22;21578;47.892;9.970;2022-07-29T16:33:37;18.60;96.60
35463;DHT22;21578;47.892;9.970;2022-07-29T16:38:24;18.70;96.60
35463;DHT22;21578;47.892;9.970;2022-07-29T16:43:12;18.80;96.60
35463;DHT22;21578;47.892;9.970;2022-07-29T16:48:01;18.80;96.60
35463;DHT22;21578;47.892;9.970;2022-07-29T16:52:48;18.80;96.60
35463;DHT22;21578;47.892;9.970;2022-07-29T16:57:35;18.90;96.60
35463;DHT22;21578;47.892;9.970;2022-07-29T17:02:22;18.90;96.60
35463;DHT22;21578;47.892;9.970;2022-07-29T17:07:11;18.90;96.60
35463;DHT22;21578;47.892;9.970;2022-07-29T17:11:58;18.90;96.60
35463;DHT22;21578;47.892;9.970;2022-07-29T17:16:45;18.90;96.60
35463;DHT22;21578;47.892;9.970;2022-07-29T17:21:32;18.90;96.60
35463;DHT22;21578;47.892;9.970;2022-07-29T17:26:21;18.80;96.60
35463;DHT22;21578;47.892;9.970;2022-07-29T17:31:08;18.80;96.60
35463;DHT22;21578;47.892;9.970;2022-07-29T17:35:55;18.70;96.60
35463;DHT22;21578;47.892;9.970;2022-07-29T17:40:59;18.70;96.60
35463;DHT22;21578;47.892;9.970;2022-07-29T17:45:48;18.70;96.60
35463;DHT22;21578;47.892;9.970;2022-07-29T17:50:35;18.70;96.60
35463;DHT22;21578;47.892;9.970;2022-07-29T17:55:22;18.60;96.60
35463;DHT22;21578;47.892;9.970;2022-07-29T18:00:10;18.60;96.60
35463;DHT22;21578;47.892;9.970;2022-07-29T18:04:59;18.60;96.60
35463;DHT22;21578;47.892;9.970;2022-07-29T18:09:46;18.50;96.60
35463;DHT22;21578;47.892;9.970;2022-07-29T18:14:33;18.60;96.60
35463;DHT22;21578;47.892;9.970;2022-07-29T18:19:20;18.50;96.60
35463;DHT22;21578;47.892;9.970;2022-07-29T18:24:09;18.50;96.60
35463;DHT22;21578;47.892;9.970;2022-07-29T18:28:56;18.40;96.60
35463;DHT22;21578;47.892;9.970;2022-07-29T18:33:43;18.40;96.60
35463;DHT22;21578;47.892;9.970;2022-07-29T18:38:30;18.40;96.60
35463;DHT22;21578;47.892;9.970;2022-07-29T18:43:19;18.30;96.60
35463;DHT22;21578;47.892;9.970;2022-07-29T18:48:06;18.40;96.60
35463;DHT22;21578;47.892;9.970;2022-07-29T18:52:53;18.30;96.60
35463;DHT22;21578;47.892;9.970;2022-07-29T18:57:42;18.40;96.60
35463;DHT22;21578;47.892;9.970;2022-07-29T19:02:31;18.30;96.60
35463;DHT22;21578;47.892;9.970;2022-07-29T19:07:18;18.20;96.60
35463;DHT22;21578;47.892;9.970;2022-07-29T19:12:10;18.30;96.60
35463;DHT22;21578;47.892;9.970;2022-07-29T19:16:57;18.20;96.60
35463;DHT22;21578;47.892;9.970;2022-07-29T19:21:46;18.20;96.60
35463;DHT22;21578;47.892;9.970;2022-07-29T19:26:34;18.10;96.60
35463;DHT22;21578;47.892;9.970;2022-07-29T19:31:23;18.10;96.60
35463;DHT22;21578;47.892;9.970;2022-07-29T19:36:10;18.00;96.60
35463;DHT22;21578;47.892;9.970;2022-07-29T19:40:59;18.00;96.60
35463;DHT22;21578;47.892;9.970;2022-07-29T19:45:46;18.00;96.60
35463;DHT22;21578;47.892;9.970;2022-07-29T19:50:33;17.90;96.60
35463;DHT22;21578;47.892;9.970;2022-07-29T19:55:20;17.90;96.60
35463;DHT22;21578;47.892;9.970;2022-07-29T20:00:10;17.90;96.60
35463;DHT22;21578;47.892;9.970;2022-07-29T20:04:57;17.90;96.60
35463;DHT22;21578;47.892;9.970;2022-07-29T20:09:45;17.90;96.60
35463;DHT22;21578;47.892;9.970;2022-07-29T20:14:32;17.80;96.60
35463;DHT22;21578;47.892;9.970;2022-07-29T20:19:20;17.70;96.60
35463;DHT22;21578;47.892;9.970;2022-07-29T20:24:08;17.70;96.60
35463;DHT22;21578;47.892;9.970;2022-07-29T20:28:55;17.60;96.60
35463;DHT22;21578;47.892;9.970;2022-07-29T20:33:42;17.60;96.60
35463;DHT22;21578;47.892;9.970;2022-07-29T20:38:30;17.60;96.60
35463;DHT22;21578;47.892;9.970;2022-07-29T20:43:17;17.50;96.60
35463;DHT22;21578;47.892;9.970;2022-07-29T20:48:05;17.50;96.60
35463;DHT22;21578;47.892;9.970;2022-07-29T20:52:52;17.40;96.60
35463;DHT22;21578;47.892;9.970;2022-07-29T20:57:40;17.40;96.60
35463;DHT22;21578;47.892;9.970;2022-07-29T21:02:27;17.40;96.60
35463;DHT22;21578;47.892;9.970;2022-07-29T21:07:14;17.30;96.60
35463;DHT22;21578;47.892;9.970;2022-07-29T21:12:01;17.20;96.60
35463;DHT22;21578;47.892;9.970;2022-07-29T21:16:50;17.20;96.60
35463;DHT22;21578;47.892;9.970;2022-07-29T21:21:37;17.10;96.60
35463;DHT22;21578;47.892;9.970;2022-07-29T21:26:24;17.10;96.60
35463;DHT22;21578;47.892;9.970;2022-07-29T21:31:14;17.00;96.60
35463;DHT22;21578;47.892;9.970;2022-07-29T21:36:04;17.00;96.60
35463;DHT22;21578;47.892;9.970;2022-07-29T21:40:51;17.00;96.60
35463;DHT22;21578;47.892;9.970;2022-07-29T21:45:38;17.00;96.60
35463;DHT22;21578;47.892;9.970;2022-07-29T21:50:25;17.00;96.60
35463;DHT22;21578;47.892;9.970;2022-07-29T21:55:13;16.90;96.60
35463;DHT22;21578;47.892;9.970;2022-07-29T22:00:00;16.90;96.60
35463;DHT22;21578;47.892;9.970;2022-07-29T22:04:47;16.80;96.60
35463;DHT22;21578;47.892;9.970;2022-07-29T22:09:35;16.70;96.60
35463;DHT22;21578;47.892;9.970;2022-07-29T22:14:23;16.70;96.60
35463;DHT22;21578;47.892;9.970;2022-07-29T22:19:11;16.70;96.60
35463;DHT22;21578;47.892;9.970;2022-07-29T22:23:59;16.80;96.60
35463;DHT22;21578;47.892;9.970;2022-07-29T22:28:46;16.70;96.60
35463;DHT22;21578;47.892;9.970;2022-07-29T22:33:34;16.60;96.60
35463;DHT22;21578;47.892;9.970;2022-07-29T22:38:21;16.60;96.60
35463;DHT22;21578;47.892;9.970;2022-07-29T22:43:08;16.60;96.60
35463;DHT22;21578;47.892;9.970;2022-07-29T22:47:56;16.50;96.60
35463;DHT22;21578;47.892;9.970;2022-07-29T22:52:44;16.50;96.60
35463;DHT22;21578;47.892;9.970;2022-07-29T22:57:31;16.50;96.60
35463;DHT22;21578;47.892;9.970;2022-07-29T23:02:18;16.40;96.60
35463;DHT22;21578;47.892;9.970;2022-07-29T23:07:05;16.40;96.60
35463;DHT22;21578;47.892;9.970;2022-07-29T23:11:54;16.30;96.60
35463;DHT22;21578;47.892;9.970;2022-07-29T23:16:41;16.40;96.60
35463;DHT22;21578;47.892;9.970;2022-07-29T23:21:28;16.30;96.60
35463;DHT22;21578;47.892;9.970;2022-07-29T23:26:15;16.20;96.60
35463;DHT22;21578;47.892;9.970;2022-07-29T23:31:03;16.20;96.60
35463;DHT22;21578;47.892;9.970;2022-07-29T23:35:50;16.30;96.60
35463;DHT22;21578;47.892;9.970;2022-07-29T23:40:37;16.20;96.60
35463;DHT22;21578;47.892;9.970;2022-07-29T23:45:24;16.20;96.60
35463;DHT22;21578;47.892;9.970;2022-07-29T23:50:13;16.10;96.60
35463;DHT22;21578;47.892;9.970;2022-07-29T23:55:01;16.10;96.60
35463;DHT22;21578;47.892;9.970;2022-07-29T23:59:48;16.10;96.60
